sensor_id;sensor_type;location;lat;lon;timestamp;P1;durP1;ratioP1;P2;durP2;ratioP2
43319;SDS011;28914;48.722;9.332;2023-11-21T00:03:57;4.17;;;2.10;;
43319;SDS011;28914;48.722;9.332;2023-11-21T00:09:17;8.90;;;2.53;;
43319;SDS011;28914;48.722;9.332;2023-11-21T00:14:39;3.33;;;2.40;;
43319;SDS011;28914;48.722;9.332;2023-11-21T00:19:58;2.80;;;2.10;;
43319;SDS011;28914;48.722;9.332;2023-11-21T00:25:17;7.50;;;2.70;;
43319;SDS011;28914;48.722;9.332;2023-11-21T00:30:36;5.00;;;2.30;;
43319;SDS011;28914;48.722;9.332;2023-11-21T00:35:56;3.70;;;2.20;;
43319;SDS011;28914;48.722;9.332;2023-11-21T00:41:15;3.60;;;3.30;;
43319;SDS011;28914;48.722;9.332;2023-11-21T00:46:35;6.13;;;2.73;;
43319;SDS011;28914;48.722;9.332;2023-11-21T00:51:55;7.17;;;3.77;;
43319;SDS011;28914;48.722;9.332;2023-11-21T00:57:16;4.23;;;3.27;;
43319;SDS011;28914;48.722;9.332;2023-11-21T01:02:35;3.43;;;2.50;;
43319;SDS011;28914;48.722;9.332;2023-11-21T01:07:55;5.30;;;2.87;;
43319;SDS011;28914;48.722;9.332;2023-11-21T01:13:14;2.83;;;2.50;;
43319;SDS011;28914;48.722;9.332;2023-11-21T01:18:34;3.63;;;2.63;;
43319;SDS011;28914;48.722;9.332;2023-11-21T01:23:54;3.43;;;2.57;;
43319;SDS011;28914;48.722;9.332;2023-11-21T01:29:13;3.00;;;2.53;;
43319;SDS011;28914;48.722;9.332;2023-11-21T01:34:33;3.90;;;2.73;;
43319;SDS011;28914;48.722;9.332;2023-11-21T01:39:53;6.30;;;2.97;;
43319;SDS011;28914;48.722;9.332;2023-11-21T01:45:13;2.57;;;2.13;;
43319;SDS011;28914;48.722;9.332;2023-11-21T01:50:33;2.20;;;1.93;;
43319;SDS011;28914;48.722;9.332;2023-11-21T01:55:52;3.13;;;2.00;;
43319;SDS011;28914;48.722;9.332;2023-11-21T02:01:12;3.70;;;2.20;;
43319;SDS011;28914;48.722;9.332;2023-11-21T02:06:31;5.23;;;2.20;;
43319;SDS011;28914;48.722;9.332;2023-11-21T02:11:50;2.73;;;2.07;;
43319;SDS011;28914;48.722;9.332;2023-11-21T02:17:09;4.03;;;1.43;;
43319;SDS011;28914;48.722;9.332;2023-11-21T02:22:29;2.93;;;1.30;;
43319;SDS011;28914;48.722;9.332;2023-11-21T02:27:51;1.70;;;1.40;;
43319;SDS011;28914;48.722;9.332;2023-11-21T02:33:10;1.70;;;1.10;;
43319;SDS011;28914;48.722;9.332;2023-11-21T02:38:31;2.17;;;1.60;;
43319;SDS011;28914;48.722;9.332;2023-11-21T02:43:50;2.33;;;1.20;;
43319;SDS011;28914;48.722;9.332;2023-11-21T02:49:09;1.40;;;1.10;;
43319;SDS011;28914;48.722;9.332;2023-11-21T02:54:29;1.43;;;1.10;;
43319;SDS011;28914;48.722;9.332;2023-11-21T02:59:48;1.40;;;1.10;;
43319;SDS011;28914;48.722;9.332;2023-11-21T03:05:07;1.93;;;1.00;;
43319;SDS011;28914;48.722;9.332;2023-11-21T03:10:30;1.63;;;0.80;;
43319;SDS011;28914;48.722;9.332;2023-11-21T03:15:49;3.80;;;1.10;;
43319;SDS011;28914;48.722;9.332;2023-11-21T03:21:08;2.07;;;1.10;;
43319;SDS011;28914;48.722;9.332;2023-11-21T03:26:27;1.20;;;0.60;;
43319;SDS011;28914;48.722;9.332;2023-11-21T03:31:46;1.50;;;0.90;;
43319;SDS011;28914;48.722;9.332;2023-11-21T03:37:06;1.00;;;0.70;;
43319;SDS011;28914;48.722;9.332;2023-11-21T03:42:25;1.53;;;0.70;;
43319;SDS011;28914;48.722;9.332;2023-11-21T03:47:45;2.63;;;1.10;;
43319;SDS011;28914;48.722;9.332;2023-11-21T03:53:05;1.83;;;0.90;;
43319;SDS011;28914;48.722;9.332;2023-11-21T03:58:24;1.80;;;0.97;;
43319;SDS011;28914;48.722;9.332;2023-11-21T04:03:43;2.27;;;0.70;;
43319;SDS011;28914;48.722;9.332;2023-11-21T04:09:03;1.20;;;0.70;;
43319;SDS011;28914;48.722;9.332;2023-11-21T04:14:23;1.37;;;0.70;;
43319;SDS011;28914;48.722;9.332;2023-11-21T04:19:42;1.23;;;0.60;;
43319;SDS011;28914;48.722;9.332;2023-11-21T04:25:01;1.40;;;0.70;;
43319;SDS011;28914;48.722;9.332;2023-11-21T04:30:21;3.80;;;0.73;;
43319;SDS011;28914;48.722;9.332;2023-11-21T04:35:40;1.17;;;0.70;;
43319;SDS011;28914;48.722;9.332;2023-11-21T04:40:59;1.77;;;0.90;;
43319;SDS011;28914;48.722;9.332;2023-11-21T04:46:18;1.50;;;0.90;;
43319;SDS011;28914;48.722;9.332;2023-11-21T04:51:38;1.33;;;0.73;;
43319;SDS011;28914;48.722;9.332;2023-11-21T04:56:57;1.30;;;0.93;;
43319;SDS011;28914;48.722;9.332;2023-11-21T05:02:17;1.20;;;1.00;;
43319;SDS011;28914;48.722;9.332;2023-11-21T05:07:38;1.33;;;1.20;;
43319;SDS011;28914;48.722;9.332;2023-11-21T05:12:58;1.90;;;1.10;;
43319;SDS011;28914;48.722;9.332;2023-11-21T05:18:17;2.30;;;0.97;;
43319;SDS011;28914;48.722;9.332;2023-11-21T05:23:36;1.77;;;1.13;;
43319;SDS011;28914;48.722;9.332;2023-11-21T05:28:56;3.23;;;0.80;;
43319;SDS011;28914;48.722;9.332;2023-11-21T05:34:15;2.27;;;0.77;;
43319;SDS011;28914;48.722;9.332;2023-11-21T05:39:34;1.30;;;0.90;;
43319;SDS011;28914;48.722;9.332;2023-11-21T05:44:54;2.10;;;1.37;;
43319;SDS011;28914;48.722;9.332;2023-11-21T05:50:15;1.70;;;0.90;;
43319;SDS011;28914;48.722;9.332;2023-11-21T05:55:35;1.20;;;0.90;;
43319;SDS011;28914;48.722;9.332;2023-11-21T06:00:54;1.20;;;0.93;;
43319;SDS011;28914;48.722;9.332;2023-11-21T06:06:13;3.03;;;0.87;;
43319;SDS011;28914;48.722;9.332;2023-11-21T06:11:33;1.43;;;0.77;;
43319;SDS011;28914;48.722;9.332;2023-11-21T06:16:52;1.30;;;0.90;;
43319;SDS011;28914;48.722;9.332;2023-11-21T06:22:11;2.57;;;1.30;;
43319;SDS011;28914;48.722;9.332;2023-11-21T06:27:34;2.27;;;1.40;;
43319;SDS011;28914;48.722;9.332;2023-11-21T06:32:56;10.13;;;8.10;;
43319;SDS011;28914;48.722;9.332;2023-11-21T06:38:15;3.37;;;3.07;;
43319;SDS011;28914;48.722;9.332;2023-11-21T06:43:34;1.90;;;1.20;;
43319;SDS011;28914;48.722;9.332;2023-11-21T06:48:54;4.30;;;3.90;;
43319;SDS011;28914;48.722;9.332;2023-11-21T06:54:14;2.73;;;2.37;;
43319;SDS011;28914;48.722;9.332;2023-11-21T06:59:33;6.40;;;2.17;;
43319;SDS011;28914;48.722;9.332;2023-11-21T07:04:52;2.50;;;1.80;;
43319;SDS011;28914;48.722;9.332;2023-11-21T07:10:12;1.33;;;0.90;;
43319;SDS011;28914;48.722;9.332;2023-11-21T07:15:31;2.07;;;1.00;;
43319;SDS011;28914;48.722;9.332;2023-11-21T07:20:51;1.70;;;1.40;;
43319;SDS011;28914;48.722;9.332;2023-11-21T07:26:11;2.30;;;2.10;;
43319;SDS011;28914;48.722;9.332;2023-11-21T07:31:30;5.70;;;2.67;;
43319;SDS011;28914;48.722;9.332;2023-11-21T07:36:53;4.57;;;3.10;;
43319;SDS011;28914;48.722;9.332;2023-11-21T07:42:12;1.77;;;1.63;;
43319;SDS011;28914;48.722;9.332;2023-11-21T07:47:31;5.00;;;1.30;;
43319;SDS011;28914;48.722;9.332;2023-11-21T07:52:53;2.43;;;1.33;;
43319;SDS011;28914;48.722;9.332;2023-11-21T07:58:13;1.40;;;1.10;;
43319;SDS011;28914;48.722;9.332;2023-11-21T08:03:32;2.17;;;1.10;;
43319;SDS011;28914;48.722;9.332;2023-11-21T08:08:51;2.20;;;2.00;;
43319;SDS011;28914;48.722;9.332;2023-11-21T08:14:10;3.13;;;1.60;;
43319;SDS011;28914;48.722;9.332;2023-11-21T08:19:30;2.37;;;1.90;;
43319;SDS011;28914;48.722;9.332;2023-11-21T08:24:50;2.70;;;1.37;;
43319;SDS011;28914;48.722;9.332;2023-11-21T08:30:09;1.47;;;1.37;;
43319;SDS011;28914;48.722;9.332;2023-11-21T08:35:29;2.47;;;1.57;;
43319;SDS011;28914;48.722;9.332;2023-11-21T08:40:49;2.43;;;1.20;;
43319;SDS011;28914;48.722;9.332;2023-11-21T08:46:09;1.97;;;1.40;;
43319;SDS011;28914;48.722;9.332;2023-11-21T08:51:28;3.07;;;2.03;;
43319;SDS011;28914;48.722;9.332;2023-11-21T08:56:47;7.30;;;6.60;;
43319;SDS011;28914;48.722;9.332;2023-11-21T09:02:06;4.07;;;3.60;;
43319;SDS011;28914;48.722;9.332;2023-11-21T09:07:26;2.20;;;1.77;;
43319;SDS011;28914;48.722;9.332;2023-11-21T09:12:45;2.30;;;2.10;;
43319;SDS011;28914;48.722;9.332;2023-11-21T09:18:05;5.70;;;4.17;;
43319;SDS011;28914;48.722;9.332;2023-11-21T09:23:24;2.77;;;1.70;;
43319;SDS011;28914;48.722;9.332;2023-11-21T09:28:43;2.20;;;1.50;;
43319;SDS011;28914;48.722;9.332;2023-11-21T09:34:06;1.87;;;1.57;;
43319;SDS011;28914;48.722;9.332;2023-11-21T09:39:25;1.67;;;1.07;;
43319;SDS011;28914;48.722;9.332;2023-11-21T09:44:45;2.00;;;1.50;;
43319;SDS011;28914;48.722;9.332;2023-11-21T09:50:17;4.70;;;1.60;;
43319;SDS011;28914;48.722;9.332;2023-11-21T09:55:37;1.83;;;0.90;;
43319;SDS011;28914;48.722;9.332;2023-11-21T10:00:59;1.43;;;1.00;;
43319;SDS011;28914;48.722;9.332;2023-11-21T10:06:21;2.07;;;1.60;;
43319;SDS011;28914;48.722;9.332;2023-11-21T10:11:41;4.07;;;3.60;;
43319;SDS011;28914;48.722;9.332;2023-11-21T10:17:02;5.07;;;4.50;;
43319;SDS011;28914;48.722;9.332;2023-11-21T10:22:22;1.90;;;1.50;;
43319;SDS011;28914;48.722;9.332;2023-11-21T10:27:42;11.60;;;10.80;;
43319;SDS011;28914;48.722;9.332;2023-11-21T10:33:02;3.40;;;3.10;;
43319;SDS011;28914;48.722;9.332;2023-11-21T10:38:25;2.17;;;1.47;;
43319;SDS011;28914;48.722;9.332;2023-11-21T10:43:46;1.53;;;1.20;;
43319;SDS011;28914;48.722;9.332;2023-11-21T10:49:06;6.63;;;5.87;;
43319;SDS011;28914;48.722;9.332;2023-11-21T10:54:25;2.60;;;1.63;;
43319;SDS011;28914;48.722;9.332;2023-11-21T10:59:48;1.80;;;1.40;;
43319;SDS011;28914;48.722;9.332;2023-11-21T11:05:07;1.43;;;0.80;;
43319;SDS011;28914;48.722;9.332;2023-11-21T11:10:30;1.77;;;1.13;;
43319;SDS011;28914;48.722;9.332;2023-11-21T11:15:49;1.00;;;0.73;;
43319;SDS011;28914;48.722;9.332;2023-11-21T11:21:22;2.27;;;1.00;;
43319;SDS011;28914;48.722;9.332;2023-11-21T11:32:21;1.27;;;0.80;;
43319;SDS011;28914;48.722;9.332;2023-11-21T11:37:59;1.40;;;1.27;;
43319;SDS011;28914;48.722;9.332;2023-11-21T11:43:27;1.50;;;1.07;;
43319;SDS011;28914;48.722;9.332;2023-11-21T11:48:46;1.20;;;0.80;;
43319;SDS011;28914;48.722;9.332;2023-11-21T11:54:07;1.30;;;0.93;;
43319;SDS011;28914;48.722;9.332;2023-11-21T11:59:26;1.13;;;0.93;;
43319;SDS011;28914;48.722;9.332;2023-11-21T12:04:45;1.00;;;0.80;;
43319;SDS011;28914;48.722;9.332;2023-11-21T12:10:05;1.70;;;1.00;;
43319;SDS011;28914;48.722;9.332;2023-11-21T12:15:25;1.20;;;0.80;;
43319;SDS011;28914;48.722;9.332;2023-11-21T12:20:45;1.10;;;0.70;;
43319;SDS011;28914;48.722;9.332;2023-11-21T12:26:07;1.00;;;0.70;;
43319;SDS011;28914;48.722;9.332;2023-11-21T12:31:28;1.43;;;1.00;;
43319;SDS011;28914;48.722;9.332;2023-11-21T12:36:48;2.23;;;1.70;;
43319;SDS011;28914;48.722;9.332;2023-11-21T12:42:08;1.70;;;1.60;;
43319;SDS011;28914;48.722;9.332;2023-11-21T12:47:29;2.30;;;1.50;;
43319;SDS011;28914;48.722;9.332;2023-11-21T12:52:48;2.20;;;1.70;;
43319;SDS011;28914;48.722;9.332;2023-11-21T12:58:09;2.03;;;1.40;;
43319;SDS011;28914;48.722;9.332;2023-11-21T13:03:29;2.00;;;1.50;;
43319;SDS011;28914;48.722;9.332;2023-11-21T13:08:49;3.90;;;1.97;;
43319;SDS011;28914;48.722;9.332;2023-11-21T13:14:10;1.50;;;1.33;;
43319;SDS011;28914;48.722;9.332;2023-11-21T13:19:29;1.50;;;1.13;;
43319;SDS011;28914;48.722;9.332;2023-11-21T13:24:49;1.63;;;1.37;;
43319;SDS011;28914;48.722;9.332;2023-11-21T13:30:09;3.33;;;1.30;;
43319;SDS011;28914;48.722;9.332;2023-11-21T13:35:28;1.87;;;1.00;;
43319;SDS011;28914;48.722;9.332;2023-11-21T13:40:56;1.00;;;0.80;;
43319;SDS011;28914;48.722;9.332;2023-11-21T13:46:17;1.00;;;0.77;;
43319;SDS011;28914;48.722;9.332;2023-11-21T13:51:40;1.10;;;0.80;;
43319;SDS011;28914;48.722;9.332;2023-11-21T13:57:03;1.20;;;0.90;;
43319;SDS011;28914;48.722;9.332;2023-11-21T14:02:24;1.20;;;0.97;;
43319;SDS011;28914;48.722;9.332;2023-11-21T14:07:50;2.47;;;2.03;;
43319;SDS011;28914;48.722;9.332;2023-11-21T14:13:10;2.03;;;1.20;;
43319;SDS011;28914;48.722;9.332;2023-11-21T14:18:29;1.50;;;1.20;;
43319;SDS011;28914;48.722;9.332;2023-11-21T14:23:57;1.50;;;1.00;;
43319;SDS011;28914;48.722;9.332;2023-11-21T14:29:17;1.10;;;0.90;;
43319;SDS011;28914;48.722;9.332;2023-11-21T14:34:38;1.90;;;1.20;;
43319;SDS011;28914;48.722;9.332;2023-11-21T14:39:59;1.10;;;0.97;;
43319;SDS011;28914;48.722;9.332;2023-11-21T14:45:18;1.80;;;1.17;;
43319;SDS011;28914;48.722;9.332;2023-11-21T14:50:39;1.10;;;0.90;;
43319;SDS011;28914;48.722;9.332;2023-11-21T14:56:01;2.70;;;0.90;;
43319;SDS011;28914;48.722;9.332;2023-11-21T15:01:25;2.30;;;1.27;;
43319;SDS011;28914;48.722;9.332;2023-11-21T15:07:11;1.90;;;1.20;;
43319;SDS011;28914;48.722;9.332;2023-11-21T15:12:31;2.00;;;1.53;;
43319;SDS011;28914;48.722;9.332;2023-11-21T15:17:56;3.00;;;2.70;;
43319;SDS011;28914;48.722;9.332;2023-11-21T15:23:15;1.93;;;1.63;;
43319;SDS011;28914;48.722;9.332;2023-11-21T15:28:37;1.53;;;1.10;;
43319;SDS011;28914;48.722;9.332;2023-11-21T15:33:56;1.73;;;1.30;;
43319;SDS011;28914;48.722;9.332;2023-11-21T15:39:18;1.57;;;1.33;;
43319;SDS011;28914;48.722;9.332;2023-11-21T15:44:37;2.50;;;2.00;;
43319;SDS011;28914;48.722;9.332;2023-11-21T15:49:57;3.67;;;2.23;;
43319;SDS011;28914;48.722;9.332;2023-11-21T15:55:16;2.30;;;1.37;;
43319;SDS011;28914;48.722;9.332;2023-11-21T16:00:35;1.60;;;1.40;;
43319;SDS011;28914;48.722;9.332;2023-11-21T16:05:55;1.93;;;1.67;;
43319;SDS011;28914;48.722;9.332;2023-11-21T16:11:15;1.43;;;1.33;;
43319;SDS011;28914;48.722;9.332;2023-11-21T16:16:34;2.50;;;1.70;;
43319;SDS011;28914;48.722;9.332;2023-11-21T16:21:53;2.90;;;1.90;;
43319;SDS011;28914;48.722;9.332;2023-11-21T16:27:12;1.80;;;1.70;;
43319;SDS011;28914;48.722;9.332;2023-11-21T16:32:32;2.13;;;1.93;;
43319;SDS011;28914;48.722;9.332;2023-11-21T16:37:54;5.40;;;2.53;;
43319;SDS011;28914;48.722;9.332;2023-11-21T16:43:14;2.20;;;1.93;;
43319;SDS011;28914;48.722;9.332;2023-11-21T16:48:34;2.07;;;1.87;;
43319;SDS011;28914;48.722;9.332;2023-11-21T16:53:53;1.90;;;1.80;;
43319;SDS011;28914;48.722;9.332;2023-11-21T16:59:12;1.73;;;1.63;;
43319;SDS011;28914;48.722;9.332;2023-11-21T17:04:31;3.43;;;2.33;;
43319;SDS011;28914;48.722;9.332;2023-11-21T17:09:52;5.07;;;3.20;;
43319;SDS011;28914;48.722;9.332;2023-11-21T17:15:11;3.67;;;3.17;;
43319;SDS011;28914;48.722;9.332;2023-11-21T17:20:31;3.33;;;3.07;;
43319;SDS011;28914;48.722;9.332;2023-11-21T17:25:50;4.73;;;2.70;;
43319;SDS011;28914;48.722;9.332;2023-11-21T17:31:09;3.00;;;2.70;;
43319;SDS011;28914;48.722;9.332;2023-11-21T17:36:29;2.77;;;2.57;;
43319;SDS011;28914;48.722;9.332;2023-11-21T17:41:48;5.73;;;3.20;;
43319;SDS011;28914;48.722;9.332;2023-11-21T17:47:07;3.23;;;2.93;;
43319;SDS011;28914;48.722;9.332;2023-11-21T17:52:28;2.93;;;2.73;;
43319;SDS011;28914;48.722;9.332;2023-11-21T17:57:47;4.47;;;3.40;;
43319;SDS011;28914;48.722;9.332;2023-11-21T18:03:06;3.17;;;2.87;;
43319;SDS011;28914;48.722;9.332;2023-11-21T18:08:25;3.53;;;3.20;;
43319;SDS011;28914;48.722;9.332;2023-11-21T18:13:44;4.73;;;4.07;;
43319;SDS011;28914;48.722;9.332;2023-11-21T18:19:04;4.40;;;3.60;;
43319;SDS011;28914;48.722;9.332;2023-11-21T18:24:23;5.07;;;4.50;;
43319;SDS011;28914;48.722;9.332;2023-11-21T18:29:42;5.13;;;4.63;;
43319;SDS011;28914;48.722;9.332;2023-11-21T18:35:02;4.43;;;4.03;;
43319;SDS011;28914;48.722;9.332;2023-11-21T18:40:21;5.80;;;5.30;;
43319;SDS011;28914;48.722;9.332;2023-11-21T18:45:40;4.30;;;3.73;;
43319;SDS011;28914;48.722;9.332;2023-11-21T18:51:00;5.87;;;5.37;;
43319;SDS011;28914;48.722;9.332;2023-11-21T18:56:20;4.63;;;4.23;;
43319;SDS011;28914;48.722;9.332;2023-11-21T19:01:40;5.60;;;5.10;;
43319;SDS011;28914;48.722;9.332;2023-11-21T19:07:00;4.97;;;4.47;;
43319;SDS011;28914;48.722;9.332;2023-11-21T19:12:21;6.93;;;6.10;;
43319;SDS011;28914;48.722;9.332;2023-11-21T19:17:40;8.87;;;8.03;;
43319;SDS011;28914;48.722;9.332;2023-11-21T19:22:59;7.60;;;6.90;;
43319;SDS011;28914;48.722;9.332;2023-11-21T19:28:18;6.90;;;5.50;;
43319;SDS011;28914;48.722;9.332;2023-11-21T19:33:37;4.50;;;4.13;;
43319;SDS011;28914;48.722;9.332;2023-11-21T19:38:56;4.60;;;4.20;;
43319;SDS011;28914;48.722;9.332;2023-11-21T19:44:16;3.93;;;3.37;;
43319;SDS011;28914;48.722;9.332;2023-11-21T19:49:35;4.27;;;3.87;;
43319;SDS011;28914;48.722;9.332;2023-11-21T19:54:54;3.83;;;3.50;;
43319;SDS011;28914;48.722;9.332;2023-11-21T20:00:14;5.10;;;4.33;;
43319;SDS011;28914;48.722;9.332;2023-11-21T20:05:34;6.70;;;6.00;;
43319;SDS011;28914;48.722;9.332;2023-11-21T20:10:54;6.73;;;6.13;;
43319;SDS011;28914;48.722;9.332;2023-11-21T20:16:13;5.53;;;5.03;;
43319;SDS011;28914;48.722;9.332;2023-11-21T20:21:34;5.13;;;4.63;;
43319;SDS011;28914;48.722;9.332;2023-11-21T20:26:54;5.20;;;4.77;;
43319;SDS011;28914;48.722;9.332;2023-11-21T20:32:14;5.50;;;4.83;;
43319;SDS011;28914;48.722;9.332;2023-11-21T20:37:33;5.13;;;4.63;;
43319;SDS011;28914;48.722;9.332;2023-11-21T20:42:52;6.33;;;4.93;;
43319;SDS011;28914;48.722;9.332;2023-11-21T20:48:12;6.40;;;5.40;;
43319;SDS011;28914;48.722;9.332;2023-11-21T20:53:32;7.97;;;6.30;;
43319;SDS011;28914;48.722;9.332;2023-11-21T20:58:51;6.70;;;6.10;;
43319;SDS011;28914;48.722;9.332;2023-11-21T21:04:11;8.57;;;7.55;;
43319;SDS011;28914;48.722;9.332;2023-11-21T21:09:30;5.50;;;5.00;;
43319;SDS011;28914;48.722;9.332;2023-11-21T21:14:49;8.00;;;6.57;;
43319;SDS011;28914;48.722;9.332;2023-11-21T21:20:08;9.57;;;6.73;;
43319;SDS011;28914;48.722;9.332;2023-11-21T21:25:33;7.40;;;6.67;;
43319;SDS011;28914;48.722;9.332;2023-11-21T21:30:53;6.87;;;6.20;;
43319;SDS011;28914;48.722;9.332;2023-11-21T21:36:12;6.70;;;6.10;;
43319;SDS011;28914;48.722;9.332;2023-11-21T21:41:32;6.60;;;5.93;;
43319;SDS011;28914;48.722;9.332;2023-11-21T21:46:51;7.33;;;6.03;;
43319;SDS011;28914;48.722;9.332;2023-11-21T21:52:10;6.40;;;5.80;;
43319;SDS011;28914;48.722;9.332;2023-11-21T21:57:30;7.67;;;6.87;;
43319;SDS011;28914;48.722;9.332;2023-11-21T22:02:49;5.63;;;5.13;;
43319;SDS011;28914;48.722;9.332;2023-11-21T22:08:08;6.00;;;5.50;;
43319;SDS011;28914;48.722;9.332;2023-11-21T22:13:27;6.20;;;5.40;;
43319;SDS011;28914;48.722;9.332;2023-11-21T22:18:46;5.87;;;5.37;;
43319;SDS011;28914;48.722;9.332;2023-11-21T22:24:06;5.27;;;4.77;;
43319;SDS011;28914;48.722;9.332;2023-11-21T22:29:25;7.20;;;5.07;;
43319;SDS011;28914;48.722;9.332;2023-11-21T22:34:45;5.20;;;4.70;;
43319;SDS011;28914;48.722;9.332;2023-11-21T22:40:05;8.05;;;6.55;;
43319;SDS011;28914;48.722;9.332;2023-11-21T22:45:24;7.60;;;5.27;;
43319;SDS011;28914;48.722;9.332;2023-11-21T22:50:43;7.47;;;5.77;;
43319;SDS011;28914;48.722;9.332;2023-11-21T22:56:04;6.73;;;5.30;;
43319;SDS011;28914;48.722;9.332;2023-11-21T23:01:26;6.77;;;6.00;;
43319;SDS011;28914;48.722;9.332;2023-11-21T23:06:47;7.03;;;5.80;;
43319;SDS011;28914;48.722;9.332;2023-11-21T23:12:07;7.03;;;5.13;;
43319;SDS011;28914;48.722;9.332;2023-11-21T23:17:26;6.20;;;5.50;;
43319;SDS011;28914;48.722;9.332;2023-11-21T23:22:48;6.13;;;5.53;;
43319;SDS011;28914;48.722;9.332;2023-11-21T23:28:08;5.57;;;5.00;;
43319;SDS011;28914;48.722;9.332;2023-11-21T23:33:27;7.13;;;6.43;;
43319;SDS011;28914;48.722;9.332;2023-11-21T23:38:49;6.17;;;5.57;;
43319;SDS011;28914;48.722;9.332;2023-11-21T23:44:09;7.80;;;5.40;;
43319;SDS011;28914;48.722;9.332;2023-11-21T23:49:28;5.47;;;4.40;;
43319;SDS011;28914;48.722;9.332;2023-11-21T23:54:47;7.83;;;5.70;;
